Pellston, Michigan
Current Conditions -  °F | °C
As of 10:09 PM on Friday 24 Oct 2014 (Local Time) from KPLN Reporting Station
Few Clouds Few Clouds  
Wind Chill: 49°   Ceiling: Unl
Heat Index: 49°   Visibility: 10mi
Dew Point: 46°   Wind: 3mph
Humidity: 90%   Direction: 210°SSW
Pressure: 29.88"   Gusts: NA
Location:  45.55°N, 84.78°W
Report Text: KPLN 250209Z AUTO 21003KT 10SM FEW013 09/08 A2988 RMK AO2 T00940078
Loading
Personal Weather Stations






























Interactive Weather Map New forecast layout! Learn more

10-Day Weather Forecast

Advertisements
Track Severe Weather on mobile